Time;durP1;ratioP1;P1;durP2;ratioP2;P2;SDS_P1;SDS_P2;PMS_P1;PMS_P2;Temp;Humidity;BMP_temperature;BMP_pressure;BME280_temperature;BME280_humidity;BME280_pressure;Samples;Min_cycle;Max_cycle;Signal;HPM_P1;HPM_P2
2021/10/03 00:02:03;;;;;;;5.45;4.07;;;18.70;46.70;;;;;;4989675;28;20407;-77
2021/10/03 00:04:32;;;;;;;7.47;4.25;;;18.70;46.60;;;;;;4989125;28;20763;-77
2021/10/03 00:06:59;;;;;;;4.18;3.60;;;18.70;46.30;;;;;;4991226;28;20471;-77
2021/10/03 00:09:25;;;;;;;4.10;3.70;;;18.80;45.60;;;;;;4992997;28;20806;-77
2021/10/03 00:11:52;;;;;;;5.67;3.60;;;18.80;45.10;;;;;;4993132;28;20394;-78
2021/10/03 00:14:20;;;;;;;4.30;3.20;;;18.80;44.50;;;;;;4993685;28;20394;-77
2021/10/03 00:16:47;;;;;;;8.02;4.10;;;18.90;45.10;;;;;;4990995;28;20410;-77
2021/10/03 00:19:15;;;;;;;3.55;3.10;;;18.80;45.40;;;;;;4993250;28;20398;-76
2021/10/03 00:21:42;;;;;;;2.55;2.42;;;18.80;45.20;;;;;;4992974;28;20875;-77
2021/10/03 00:24:08;;;;;;;2.90;2.60;;;18.90;44.90;;;;;;4993556;28;20402;-77
2021/10/03 00:26:34;;;;;;;4.97;3.10;;;18.90;44.70;;;;;;4993218;28;20433;-78
2021/10/03 00:29:00;;;;;;;3.20;2.80;;;18.90;44.70;;;;;;4993455;28;20412;-77
2021/10/03 00:31:26;;;;;;;4.13;2.83;;;18.90;45.00;;;;;;4994965;28;20394;-76
2021/10/03 00:33:52;;;;;;;6.00;3.20;;;18.80;45.50;;;;;;4992705;28;20398;-76
2021/10/03 00:36:18;;;;;;;2.60;2.40;;;18.90;45.00;;;;;;4992991;28;20410;-76
2021/10/03 00:38:43;;;;;;;2.80;2.50;;;19.00;44.20;;;;;;4993870;28;20397;-77
2021/10/03 00:41:09;;;;;;;3.70;2.40;;;19.00;43.80;;;;;;4994225;28;20949;-77
2021/10/03 00:43:35;;;;;;;3.00;2.70;;;19.10;44.00;;;;;;4993157;28;20429;-77
2021/10/03 00:46:00;;;;;;;4.20;2.60;;;19.00;43.60;;;;;;4994336;28;20452;-77
2021/10/03 00:48:26;;;;;;;4.03;2.45;;;19.10;44.00;;;;;;4993877;28;20409;-76
2021/10/03 00:50:52;;;;;;;4.30;2.50;;;19.10;43.40;;;;;;4992770;28;20430;-77
2021/10/03 00:53:17;;;;;;;2.50;2.30;;;19.10;42.70;;;;;;4993923;28;20402;-77
2021/10/03 00:55:43;;;;;;;3.75;2.33;;;19.10;43.60;;;;;;4993687;28;20450;-78
2021/10/03 00:58:10;;;;;;;2.92;2.30;;;19.10;43.10;;;;;;4992007;28;20395;-75
2021/10/03 01:00:39;;;;;;;2.55;2.35;;;19.10;43.30;;;;;;4992688;28;20902;-76
2021/10/03 01:03:06;;;;;;;2.60;2.40;;;19.10;42.80;;;;;;4990568;28;20411;-76
2021/10/03 01:05:32;;;;;;;4.10;2.50;;;19.20;42.50;;;;;;4994001;28;20401;-75
2021/10/03 01:07:59;;;;;;;2.40;2.30;;;19.20;42.40;;;;;;4990422;28;20971;-74
2021/10/03 01:10:26;;;;;;;2.65;2.45;;;19.20;42.30;;;;;;4991274;28;20888;-75
2021/10/03 01:13:03;;;;;;;2.22;2.13;;;19.20;42.30;;;;;;4992784;28;20394;-75
2021/10/03 01:15:30;;;;;;;4.00;2.40;;;19.20;41.40;;;;;;4974767;28;20408;-75
2021/10/03 01:17:55;;;;;;;3.80;2.30;;;19.20;41.70;;;;;;4991951;28;20872;-74
2021/10/03 01:20:22;;;;;;;2.57;2.37;;;19.20;41.70;;;;;;4992388;28;20465;-75
2021/10/03 01:22:48;;;;;;;5.05;2.75;;;19.20;42.00;;;;;;4991738;28;20390;-75
2021/10/03 01:25:13;;;;;;;2.50;2.30;;;19.10;41.80;;;;;;4991941;28;20395;-75
2021/10/03 01:27:39;;;;;;;4.28;2.60;;;19.20;41.70;;;;;;4993182;28;20402;-75
2021/10/03 01:30:09;;;;;;;2.70;2.50;;;19.10;42.30;;;;;;4993893;28;20756;-74
2021/10/03 01:32:35;;;;;;;2.83;2.58;;;19.10;41.40;;;;;;4995493;28;20425;-76
2021/10/03 01:35:01;;;;;;;3.03;2.43;;;19.10;41.60;;;;;;4997728;28;20473;-74
2021/10/03 01:37:26;;;;;;;7.00;2.63;;;19.10;41.60;;;;;;4999458;28;20410;-74
2021/10/03 01:39:54;;;;;;;3.95;2.72;;;19.10;41.20;;;;;;4998542;28;20764;-75
2021/10/03 01:42:19;;;;;;;5.00;2.80;;;19.10;41.00;;;;;;4995213;28;20417;-74
2021/10/03 01:44:45;;;;;;;3.20;2.90;;;19.10;40.90;;;;;;4994250;28;20394;-74
2021/10/03 01:47:11;;;;;;;2.83;2.63;;;19.10;40.90;;;;;;4994331;28;20390;-74
2021/10/03 01:49:36;;;;;;;5.25;3.00;;;19.00;41.30;;;;;;4994058;28;20399;-74
2021/10/03 01:52:03;;;;;;;3.90;3.20;;;19.10;41.10;;;;;;4994416;28;20440;-74
2021/10/03 01:54:28;;;;;;;5.28;2.88;;;19.10;40.70;;;;;;4993713;28;20410;-74
2021/10/03 01:56:54;;;;;;;4.50;2.50;;;19.10;40.40;;;;;;4993925;28;20810;-74
2021/10/03 01:59:20;;;;;;;3.60;2.60;;;19.00;40.60;;;;;;4993485;28;20398;-74
2021/10/03 02:01:47;;;;;;;2.47;2.20;;;19.00;41.40;;;;;;4994218;28;20883;-75
2021/10/03 02:04:25;;;;;;;3.00;2.40;;;19.00;40.80;;;;;;4993844;28;20883;-75
2021/10/03 02:06:54;;;;;;;2.83;2.60;;;19.00;40.80;;;;;;4994083;28;20398;-73
2021/10/03 02:09:22;;;;;;;3.65;2.45;;;19.10;40.70;;;;;;4993702;28;20776;-73
2021/10/03 02:11:54;;;;;;;2.65;2.45;;;19.00;41.10;;;;;;4993367;28;20398;-74
2021/10/03 02:14:26;;;;;;;3.05;2.30;;;18.90;41.40;;;;;;4994165;28;20402;-74
2021/10/03 02:16:55;;;;;;;2.63;2.42;;;18.90;41.60;;;;;;4982779;28;20454;-76
2021/10/03 02:19:22;;;;;;;2.97;2.70;;;18.90;41.80;;;;;;4994166;28;20472;-73
2021/10/03 02:21:48;;;;;;;6.68;2.42;;;18.80;42.10;;;;;;4992717;28;21019;-74
2021/10/03 02:24:15;;;;;;;5.03;3.00;;;18.80;42.50;;;;;;4993994;28;20477;-74
2021/10/03 02:26:41;;;;;;;3.05;2.60;;;18.80;42.80;;;;;;4993743;28;20438;-74
2021/10/03 02:29:07;;;;;;;5.60;2.63;;;18.70;43.70;;;;;;4993738;28;20820;-75
2021/10/03 02:31:33;;;;;;;4.03;2.78;;;18.60;43.70;;;;;;4992777;28;20391;-75
2021/10/03 02:33:59;;;;;;;5.78;2.88;;;18.70;43.20;;;;;;4993879;28;20393;-75
2021/10/03 02:36:25;;;;;;;3.00;2.65;;;18.70;43.10;;;;;;4994119;28;20888;-75
2021/10/03 02:38:53;;;;;;;4.70;2.80;;;18.60;42.90;;;;;;4993496;28;20405;-75
2021/10/03 02:41:21;;;;;;;5.78;3.00;;;18.60;42.70;;;;;;4992780;28;20391;-74
2021/10/03 02:43:51;;;;;;;5.00;3.10;;;18.60;42.10;;;;;;4991071;28;20403;-74
2021/10/03 02:46:19;;;;;;;4.60;3.25;;;18.60;42.50;;;;;;4992516;28;20405;-74
2021/10/03 02:48:49;;;;;;;5.38;3.20;;;18.60;43.10;;;;;;4993355;28;20402;-74
2021/10/03 02:51:20;;;;;;;6.80;3.00;;;18.50;42.80;;;;;;4992993;28;20460;-74
2021/10/03 02:53:49;;;;;;;5.38;3.17;;;18.60;42.20;;;;;;4993321;28;20401;-75
2021/10/03 02:56:19;;;;;;;4.68;2.88;;;18.60;42.10;;;;;;4993163;28;20753;-74
2021/10/03 02:58:45;;;;;;;5.28;3.40;;;18.60;42.80;;;;;;4993062;28;20900;-75
2021/10/03 03:01:11;;;;;;;3.20;2.90;;;18.50;43.70;;;;;;4992431;28;20498;-74
2021/10/03 03:03:37;;;;;;;6.80;3.50;;;18.50;43.90;;;;;;4992592;28;20403;-74
2021/10/03 03:06:08;;;;;;;4.47;3.20;;;18.50;44.10;;;;;;4993196;28;20453;-74
2021/10/03 03:08:34;;;;;;;3.83;3.25;;;18.40;43.40;;;;;;4992186;28;20819;-74
2021/10/03 03:11:01;;;;;;;9.00;3.90;;;18.40;43.80;;;;;;4992950;28;20414;-74
2021/10/03 03:13:27;;;;;;;5.38;3.35;;;18.30;44.70;;;;;;4992937;28;20441;-74
2021/10/03 03:15:53;;;;;;;6.55;3.67;;;18.30;45.80;;;;;;4993540;28;20411;-74
2021/10/03 03:18:19;;;;;;;6.78;3.80;;;18.30;46.40;;;;;;4992771;28;20405;-75
2021/10/03 03:20:45;;;;;;;4.73;3.67;;;18.10;47.60;;;;;;4993245;28;20399;-75
2021/10/03 03:23:10;;;;;;;3.90;3.50;;;18.00;49.00;;;;;;4993958;28;20403;-74
2021/10/03 03:25:36;;;;;;;6.95;3.42;;;17.90;49.40;;;;;;4992297;28;20804;-74
2021/10/03 03:28:04;;;;;;;4.40;4.00;;;17.90;49.50;;;;;;4993489;28;20753;-74
2021/10/03 03:30:29;;;;;;;4.50;3.90;;;17.90;47.70;;;;;;4992535;28;20420;-74
2021/10/03 03:32:55;;;;;;;4.30;3.90;;;17.90;47.90;;;;;;4992480;28;20477;-75
2021/10/03 03:35:21;;;;;;;6.33;4.10;;;17.90;46.60;;;;;;4992557;28;20775;-74
2021/10/03 03:37:46;;;;;;;7.93;4.50;;;18.00;45.70;;;;;;4992682;28;20828;-74
2021/10/03 03:40:14;;;;;;;6.95;4.18;;;18.00;46.10;;;;;;4980585;28;20404;-75
2021/10/03 03:42:40;;;;;;;8.05;4.78;;;18.10;44.80;;;;;;4992499;28;20390;-74
2021/10/03 03:45:07;;;;;;;6.20;4.10;;;18.10;44.70;;;;;;4992424;28;20879;-74
2021/10/03 03:47:32;;;;;;;4.47;4.00;;;18.10;43.30;;;;;;4992582;28;20931;-76
2021/10/03 03:49:58;;;;;;;5.30;4.30;;;18.20;42.40;;;;;;4991475;28;20410;-74
2021/10/03 03:52:24;;;;;;;7.30;4.70;;;18.20;43.20;;;;;;5006502;28;20466;-74
2021/10/03 03:54:49;;;;;;;6.40;4.27;;;18.30;41.80;;;;;;5011681;28;20435;-75
2021/10/03 03:57:15;;;;;;;10.65;5.03;;;18.30;41.60;;;;;;4994593;28;20414;-74
2021/10/03 03:59:41;;;;;;;4.75;4.35;;;18.40;40.50;;;;;;4991790;28;20394;-74
2021/10/03 04:02:07;;;;;;;9.50;4.63;;;18.40;40.50;;;;;;4991141;28;20407;-75
2021/10/03 04:04:32;;;;;;;6.10;4.60;;;18.40;39.90;;;;;;4991943;28;20391;-73
2021/10/03 04:06:58;;;;;;;8.43;4.90;;;18.40;39.80;;;;;;4991954;28;20402;-75
2021/10/03 04:09:26;;;;;;;6.97;4.70;;;18.40;39.20;;;;;;4991964;28;20568;-76
2021/10/03 04:11:52;;;;;;;6.03;4.93;;;18.40;39.50;;;;;;4992460;28;20409;-75
2021/10/03 04:14:17;;;;;;;5.85;4.50;;;18.50;38.90;;;;;;4994100;28;20394;-75
2021/10/03 04:16:43;;;;;;;6.83;5.30;;;18.50;39.00;;;;;;4993183;28;20768;-75
2021/10/03 04:19:08;;;;;;;12.67;5.20;;;18.50;38.60;;;;;;4994564;28;20465;-76
2021/10/03 04:21:34;;;;;;;6.93;4.65;;;18.60;39.10;;;;;;4991601;28;20963;-76
2021/10/03 04:24:00;;;;;;;9.43;5.20;;;18.60;37.80;;;;;;4991555;28;20386;-76
2021/10/03 04:26:25;;;;;;;11.87;5.60;;;18.60;37.80;;;;;;4991372;28;20900;-76
2021/10/03 04:28:51;;;;;;;7.28;5.25;;;18.70;37.10;;;;;;4991239;28;20398;-77
2021/10/03 04:31:17;;;;;;;9.70;5.68;;;18.80;37.30;;;;;;4992868;28;20449;-78
2021/10/03 04:33:42;;;;;;;8.95;5.88;;;18.70;37.10;;;;;;4992405;28;20406;-77
2021/10/03 04:36:09;;;;;;;6.70;5.07;;;18.70;37.00;;;;;;4991410;28;20429;-76
2021/10/03 04:38:36;;;;;;;6.90;5.63;;;18.80;37.00;;;;;;4992563;28;20425;-77
2021/10/03 04:41:02;;;;;;;9.30;5.50;;;18.80;36.20;;;;;;4992463;28;20399;-77
2021/10/03 04:43:27;;;;;;;7.68;5.50;;;18.90;36.20;;;;;;4992202;28;20789;-77
2021/10/03 04:45:53;;;;;;;10.95;5.90;;;18.90;35.30;;;;;;4992414;28;20528;-77
2021/10/03 04:48:18;;;;;;;9.45;5.63;;;19.00;34.80;;;;;;4992369;28;20481;-77
2021/10/03 04:50:45;;;;;;;10.03;6.30;;;19.00;34.80;;;;;;4992408;28;20705;-77
2021/10/03 04:53:10;;;;;;;14.05;5.90;;;19.10;34.30;;;;;;4991642;28;20394;-77
2021/10/03 04:55:36;;;;;;;8.97;5.70;;;19.10;34.20;;;;;;4991188;28;20418;-77
2021/10/03 04:58:01;;;;;;;7.73;6.10;;;19.10;33.60;;;;;;4991964;28;20405;-77
2021/10/03 05:00:27;;;;;;;7.75;5.93;;;19.20;32.90;;;;;;4991944;28;20433;-78
2021/10/03 05:02:53;;;;;;;9.63;5.40;;;19.30;32.90;;;;;;4993352;28;20812;-77
2021/10/03 05:05:19;;;;;;;8.93;6.15;;;19.20;33.50;;;;;;4995355;28;20473;-76
2021/10/03 05:07:45;;;;;;;9.30;6.30;;;19.30;33.30;;;;;;4998734;28;20430;-77
2021/10/03 05:10:10;;;;;;;7.85;5.50;;;19.30;33.20;;;;;;4996818;28;20422;-76
2021/10/03 05:12:36;;;;;;;9.13;6.00;;;19.40;32.60;;;;;;4999093;28;20902;-77
2021/10/03 05:15:02;;;;;;;15.87;6.37;;;19.40;33.80;;;;;;5000376;28;20427;-77
2021/10/03 05:17:27;;;;;;;7.90;5.90;;;19.40;32.40;;;;;;5001156;28;20809;-76
2021/10/03 05:19:53;;;;;;;15.20;6.40;;;19.40;32.90;;;;;;5000958;28;20390;-76
2021/10/03 05:22:18;;;;;;;15.17;5.90;;;19.40;32.60;;;;;;5000221;28;20489;-77
2021/10/03 05:24:44;;;;;;;10.50;6.50;;;19.40;33.00;;;;;;4998775;28;20405;-77
2021/10/03 05:27:09;;;;;;;8.50;6.03;;;19.40;33.70;;;;;;4998390;28;20402;-76
2021/10/03 05:29:35;;;;;;;10.65;6.30;;;19.30;34.80;;;;;;4999080;28;20410;-77
2021/10/03 05:32:00;;;;;;;9.90;6.40;;;19.30;35.60;;;;;;5008632;28;20394;-77
2021/10/03 05:34:26;;;;;;;16.67;6.90;;;19.20;36.20;;;;;;5013740;28;20405;-76
2021/10/03 05:36:51;;;;;;;11.50;6.70;;;19.10;37.30;;;;;;5012622;28;20470;-75
2021/10/03 05:39:17;;;;;;;13.17;6.30;;;19.10;38.50;;;;;;5014016;28;20405;-79
2021/10/03 05:41:43;;;;;;;13.45;6.80;;;19.00;38.60;;;;;;5012288;28;20815;-76
2021/10/03 05:44:08;;;;;;;12.38;7.28;;;18.90;40.00;;;;;;5002487;28;20470;-77
2021/10/03 05:46:34;;;;;;;12.40;6.90;;;18.80;39.80;;;;;;5002121;28;20417;-77
2021/10/03 05:48:59;;;;;;;10.90;6.67;;;18.80;40.50;;;;;;5000058;28;20785;-77
2021/10/03 05:51:25;;;;;;;10.80;6.53;;;18.80;42.00;;;;;;4999827;28;20406;-78
2021/10/03 05:53:50;;;;;;;12.00;7.40;;;18.70;41.90;;;;;;4998251;28;20390;-78
2021/10/03 05:56:16;;;;;;;12.63;6.67;;;18.70;42.50;;;;;;4998194;28;20413;-78
2021/10/03 05:58:41;;;;;;;12.38;6.20;;;18.70;41.80;;;;;;5001681;28;20413;-76
2021/10/03 06:01:07;;;;;;;8.85;7.13;;;18.70;42.20;;;;;;5001222;28;20409;-76
2021/10/03 06:03:33;;;;;;;10.00;6.90;;;18.60;42.80;;;;;;5002203;28;20394;-78
2021/10/03 06:05:58;;;;;;;7.93;6.83;;;18.70;42.90;;;;;;5005573;28;20414;-78
2021/10/03 06:08:24;;;;;;;12.25;7.00;;;18.70;42.60;;;;;;5003995;28;20410;-78
2021/10/03 06:10:50;;;;;;;12.03;6.60;;;18.70;40.70;;;;;;5007036;28;20390;-78
2021/10/03 06:13:15;;;;;;;10.27;6.97;;;18.80;41.90;;;;;;5005313;28;20412;-78
2021/10/03 06:15:44;;;;;;;11.10;6.73;;;18.80;42.10;;;;;;5004256;28;20411;-78
2021/10/03 06:18:11;;;;;;;8.95;6.28;;;18.70;43.20;;;;;;4996259;28;20441;-78
2021/10/03 06:20:37;;;;;;;13.77;6.90;;;18.70;42.80;;;;;;4997425;28;20436;-78
2021/10/03 06:23:02;;;;;;;11.97;6.60;;;18.70;42.00;;;;;;4995632;28;20542;-76
2021/10/03 06:25:28;;;;;;;8.07;6.93;;;18.70;43.00;;;;;;4995019;28;20767;-77
2021/10/03 06:27:53;;;;;;;13.00;6.87;;;18.80;41.90;;;;;;4994375;28;20449;-76
2021/10/03 06:30:20;;;;;;;10.30;6.50;;;18.80;42.80;;;;;;4994821;28;20413;-78
2021/10/03 06:32:46;;;;;;;11.60;7.13;;;18.80;43.00;;;;;;4995608;28;20526;-77
2021/10/03 06:35:12;;;;;;;12.70;7.23;;;18.80;42.20;;;;;;4997745;28;20394;-78
2021/10/03 06:37:38;;;;;;;12.13;7.13;;;18.80;42.40;;;;;;4995201;28;20735;-77
2021/10/03 06:40:05;;;;;;;12.43;6.70;;;18.80;42.80;;;;;;4998726;28;20875;-75
2021/10/03 06:42:31;;;;;;;9.60;6.80;;;18.80;44.00;;;;;;4994482;28;20422;-77
2021/10/03 06:44:57;;;;;;;11.70;8.07;;;18.70;42.40;;;;;;4995455;28;20425;-78
2021/10/03 06:47:22;;;;;;;15.60;7.47;;;18.80;43.60;;;;;;4994448;28;20391;-76
2021/10/03 06:49:48;;;;;;;8.10;7.07;;;18.80;45.70;;;;;;4994371;28;20426;-76
2021/10/03 06:52:13;;;;;;;12.73;7.50;;;18.70;45.70;;;;;;4991109;28;20433;-77
2021/10/03 06:54:39;;;;;;;11.73;7.18;;;18.70;46.70;;;;;;4993700;28;20442;-76
2021/10/03 06:57:05;;;;;;;12.03;8.40;;;18.60;46.60;;;;;;4994449;28;20413;-77
2021/10/03 06:59:31;;;;;;;8.63;7.27;;;18.60;46.60;;;;;;4993692;28;20478;-76
2021/10/03 07:02:03;;;;;;;10.70;7.10;;;18.60;47.90;;;;;;4992328;28;20402;-76
2021/10/03 07:04:32;;;;;;;7.97;7.03;;;18.70;46.90;;;;;;4993278;28;20473;-76
2021/10/03 07:06:58;;;;;;;10.32;7.35;;;18.70;47.10;;;;;;4992419;28;20904;-73
2021/10/03 07:09:25;;;;;;;10.00;7.22;;;18.70;48.30;;;;;;4993053;28;20409;-73
2021/10/03 07:11:50;;;;;;;9.07;6.90;;;18.70;48.60;;;;;;4992387;28;20418;-73
2021/10/03 07:14:16;;;;;;;14.40;7.18;;;18.60;49.20;;;;;;4992731;28;20541;-73
2021/10/03 07:16:42;;;;;;;8.80;6.60;;;18.60;48.50;;;;;;4991943;28;20450;-76
2021/10/03 07:19:08;;;;;;;11.30;7.78;;;18.60;48.80;;;;;;4979053;28;20487;-74
2021/10/03 07:21:33;;;;;;;15.73;7.70;;;18.50;50.50;;;;;;4991674;28;20930;-77
2021/10/03 07:23:59;;;;;;;10.20;6.80;;;18.50;51.20;;;;;;4977441;28;20388;-75
2021/10/03 07:26:24;;;;;;;10.60;7.67;;;18.60;49.70;;;;;;4978747;28;20987;-75
2021/10/03 07:28:50;;;;;;;9.25;7.47;;;18.50;50.40;;;;;;4993291;28;20402;-77
2021/10/03 07:31:16;;;;;;;10.90;7.10;;;18.50;51.30;;;;;;4993263;28;20485;-76
2021/10/03 07:33:44;;;;;;;14.52;7.30;;;18.50;50.50;;;;;;4993925;28;20426;-77
2021/10/03 07:36:09;;;;;;;12.68;7.65;;;18.50;51.30;;;;;;4992615;28;20410;-77
2021/10/03 07:38:35;;;;;;;13.10;7.65;;;18.50;53.00;;;;;;4992641;28;20402;-76
2021/10/03 07:41:01;;;;;;;10.47;7.37;;;18.40;54.60;;;;;;4993166;28;20884;-77
2021/10/03 07:43:26;;;;;;;13.75;7.50;;;18.30;55.80;;;;;;4992537;28;20958;-76
2021/10/03 07:45:52;;;;;;;13.00;7.93;;;18.30;55.90;;;;;;4987916;28;20384;-76
2021/10/03 07:48:17;;;;;;;8.70;7.60;;;18.30;55.70;;;;;;4975586;28;20494;-75
2021/10/03 07:50:43;;;;;;;10.17;8.47;;;18.30;55.60;;;;;;4995552;28;20418;-76
2021/10/03 07:53:08;;;;;;;15.63;7.90;;;18.30;56.60;;;;;;4993036;28;21067;-75
2021/10/03 07:55:34;;;;;;;14.20;7.80;;;18.20;57.20;;;;;;4993098;28;20398;-75
2021/10/03 07:58:03;;;;;;;15.43;8.20;;;18.20;57.30;;;;;;4988361;28;20899;-74
2021/10/03 08:00:30;;;;;;;12.90;8.00;;;18.20;56.40;;;;;;4992681;28;20403;-77
2021/10/03 08:02:56;;;;;;;10.80;8.00;;;18.20;59.20;;;;;;4995211;28;20816;-76
2021/10/03 08:05:21;;;;;;;13.77;8.35;;;18.20;59.10;;;;;;4983663;28;20386;-76
2021/10/03 08:07:47;;;;;;;10.33;7.60;;;18.20;57.80;;;;;;4992624;28;20390;-75
2021/10/03 08:10:12;;;;;;;10.40;7.00;;;18.10;60.10;;;;;;4995720;28;20440;-76
2021/10/03 08:12:38;;;;;;;11.30;7.63;;;18.20;56.70;;;;;;4999096;28;20425;-75
2021/10/03 08:15:04;;;;;;;11.90;9.00;;;18.20;58.10;;;;;;4997870;28;20413;-75
2021/10/03 08:17:30;;;;;;;12.93;7.90;;;18.20;59.10;;;;;;4996397;28;20410;-76
2021/10/03 08:19:55;;;;;;;13.95;8.77;;;18.10;60.50;;;;;;4996556;28;20760;-76
2021/10/03 08:22:21;;;;;;;12.60;8.23;;;18.20;60.40;;;;;;5001849;28;20398;-76
2021/10/03 08:24:46;;;;;;;14.77;7.35;;;18.20;57.80;;;;;;5005214;28;20437;-76
2021/10/03 08:27:12;;;;;;;13.25;8.20;;;18.30;57.10;;;;;;5008298;28;20410;-77
2021/10/03 08:29:37;;;;;;;14.60;7.80;;;18.20;58.00;;;;;;5007403;28;20402;-75
2021/10/03 08:32:03;;;;;;;10.80;8.30;;;18.30;55.90;;;;;;5001103;28;21030;-76
2021/10/03 08:34:29;;;;;;;9.70;7.00;;;18.40;56.20;;;;;;4998743;28;20425;-75
2021/10/03 08:36:55;;;;;;;13.45;7.40;;;18.40;53.90;;;;;;4991701;28;20410;-77
2021/10/03 08:39:20;;;;;;;11.18;8.10;;;18.40;55.40;;;;;;4998739;28;20908;-78
2021/10/03 08:41:46;;;;;;;11.67;7.30;;;18.50;56.30;;;;;;5002461;28;20409;-77
2021/10/03 08:44:12;;;;;;;10.47;7.43;;;18.50;55.40;;;;;;5006579;28;20399;-76
2021/10/03 08:46:38;;;;;;;13.43;7.05;;;18.50;54.90;;;;;;5004656;28;20760;-76
2021/10/03 08:49:04;;;;;;;11.73;7.35;;;18.60;54.20;;;;;;5000770;28;20433;-76
2021/10/03 08:51:30;;;;;;;8.68;7.40;;;18.50;55.50;;;;;;5007138;28;20418;-76
2021/10/03 08:53:56;;;;;;;11.57;7.10;;;18.50;54.60;;;;;;5004050;28;20390;-76
2021/10/03 08:56:25;;;;;;;9.00;7.70;;;18.60;54.60;;;;;;4991722;28;20427;-78
2021/10/03 08:58:52;;;;;;;13.73;7.75;;;18.60;55.80;;;;;;4989699;28;20410;-75
2021/10/03 09:01:19;;;;;;;13.82;7.40;;;18.50;56.70;;;;;;4996453;28;20413;-78
2021/10/03 09:03:45;;;;;;;10.50;7.87;;;18.50;56.90;;;;;;5008215;28;20497;-76
2021/10/03 09:06:11;;;;;;;14.80;7.50;;;18.50;57.50;;;;;;5010569;28;20383;-76
2021/10/03 09:08:39;;;;;;;14.00;7.68;;;18.40;58.20;;;;;;5004501;28;20749;-79
2021/10/03 09:11:10;;;;;;;11.00;7.60;;;18.40;59.60;;;;;;5001282;28;20394;-78
2021/10/03 09:13:35;;;;;;;11.15;7.75;;;18.50;57.40;;;;;;4999487;28;20402;-77
2021/10/03 09:16:29;;;;;;;8.60;6.97;;;18.50;57.90;;;;;;4992794;28;20414;-76
2021/10/03 09:18:58;;;;;;;15.38;7.47;;;18.50;58.50;;;;;;4993854;28;20724;-77
2021/10/03 09:21:30;;;;;;;10.87;6.70;;;18.60;59.00;;;;;;4998211;28;20394;-77
2021/10/03 09:24:03;;;;;;;10.85;7.72;;;18.60;57.70;;;;;;5002308;28;20386;-79
2021/10/03 09:26:32;;;;;;;10.80;7.18;;;18.60;58.30;;;;;;5003802;28;20418;-79
2021/10/03 09:28:57;;;;;;;8.38;7.43;;;18.60;58.50;;;;;;4999052;28;20394;-73
2021/10/03 09:31:24;;;;;;;10.20;6.93;;;18.70;56.80;;;;;;4988726;28;20452;-77
2021/10/03 09:33:53;;;;;;;10.32;7.00;;;18.70;57.20;;;;;;4994325;28;20402;-79
2021/10/03 09:36:22;;;;;;;8.40;6.40;;;18.80;55.10;;;;;;4996522;28;20445;-77
2021/10/03 09:38:58;;;;;;;11.23;6.45;;;18.90;53.50;;;;;;4995991;28;20402;-77
2021/10/03 09:41:33;;;;;;;12.38;7.05;;;18.90;53.70;;;;;;4996756;28;20399;-78
2021/10/03 09:44:08;;;;;;;9.13;6.60;;;19.00;51.30;;;;;;4995354;28;20426;-78
2021/10/03 09:46:40;;;;;;;9.75;6.75;;;19.10;51.30;;;;;;4993506;28;20497;-79
2021/10/03 09:49:12;;;;;;;9.25;6.88;;;19.30;49.20;;;;;;4995194;28;20411;-76
2021/10/03 09:51:40;;;;;;;10.13;6.10;;;19.40;47.10;;;;;;4998944;28;20429;-77
2021/10/03 09:54:07;;;;;;;9.90;6.80;;;19.60;45.90;;;;;;5000082;28;20903;-77
2021/10/03 09:56:33;;;;;;;10.30;6.50;;;19.60;43.70;;;;;;5001008;28;20430;-77
2021/10/03 09:59:01;;;;;;;7.25;6.10;;;19.70;44.20;;;;;;5000195;28;20394;-78
2021/10/03 10:01:29;;;;;;;10.80;6.40;;;19.80;43.40;;;;;;4999623;28;20395;-76
2021/10/03 10:03:55;;;;;;;10.50;6.45;;;19.90;43.40;;;;;;4998220;28;20793;-80
2021/10/03 10:06:22;;;;;;;7.95;5.80;;;20.00;42.10;;;;;;4999501;28;20858;-78
2021/10/03 10:08:48;;;;;;;6.43;5.78;;;20.10;42.30;;;;;;4996127;28;20402;-77
2021/10/03 10:11:18;;;;;;;11.35;6.50;;;20.10;41.70;;;;;;4993748;28;20760;-77
2021/10/03 10:13:54;;;;;;;8.27;6.30;;;20.20;41.20;;;;;;4991295;28;20780;-76
2021/10/03 10:16:27;;;;;;;7.55;6.20;;;20.20;41.80;;;;;;4998096;28;20414;-76
2021/10/03 10:19:33;;;;;;;9.50;6.25;;;20.20;40.80;;;;;;4999071;28;20394;-74
2021/10/03 10:22:22;;;;;;;10.23;5.95;;;20.20;40.10;;;;;;4990607;28;21035;-75
2021/10/03 10:24:50;;;;;;;9.90;5.70;;;20.10;40.40;;;;;;4995784;28;20383;-75
2021/10/03 10:27:22;;;;;;;12.20;6.00;;;20.10;40.50;;;;;;4993260;28;20425;-75
2021/10/03 10:29:57;;;;;;;10.93;6.45;;;20.00;41.60;;;;;;4994594;28;20405;-77
2021/10/03 10:32:24;;;;;;;10.15;6.03;;;20.00;42.40;;;;;;4981521;28;20458;-75
2021/10/03 10:35:07;;;;;;;7.20;5.93;;;20.00;43.40;;;;;;5000495;28;20461;-77
2021/10/03 10:37:51;;;;;;;8.82;6.32;;;20.00;42.40;;;;;;4997406;28;20552;-76
2021/10/03 10:40:23;;;;;;;7.55;6.00;;;20.00;42.40;;;;;;4993529;28;20402;-77
2021/10/03 10:42:51;;;;;;;8.20;5.93;;;20.00;42.40;;;;;;4993745;28;20394;-77
2021/10/03 10:45:40;;;;;;;11.05;6.75;;;20.00;42.60;;;;;;4995885;28;20584;-76
2021/10/03 10:48:11;;;;;;;11.43;6.45;;;20.00;42.80;;;;;;4990496;28;20398;-77
2021/10/03 10:50:49;;;;;;;9.17;6.13;;;20.00;42.60;;;;;;4997396;28;20481;-77
2021/10/03 10:53:31;;;;;;;8.10;6.20;;;19.90;42.50;;;;;;4998094;28;20906;-76
2021/10/03 10:56:03;;;;;;;9.57;6.47;;;19.90;42.70;;;;;;4994742;28;20445;-77
2021/10/03 10:58:31;;;;;;;9.65;6.32;;;19.90;42.10;;;;;;4994720;28;20505;-77
2021/10/03 11:01:06;;;;;;;8.52;6.05;;;20.00;41.70;;;;;;4974919;28;20949;-77
2021/10/03 11:03:44;;;;;;;9.02;6.22;;;20.10;41.40;;;;;;4978281;28;20405;-75
2021/10/03 11:06:21;;;;;;;9.02;6.43;;;20.10;41.70;;;;;;4993986;28;20557;-75
2021/10/03 11:09:02;;;;;;;8.30;6.60;;;20.10;41.30;;;;;;4996013;28;20386;-75
2021/10/03 11:11:32;;;;;;;11.63;6.70;;;20.10;40.30;;;;;;4993071;28;20391;-75
2021/10/03 11:14:00;;;;;;;9.35;6.00;;;20.20;40.30;;;;;;4994889;28;20780;-76
2021/10/03 11:16:33;;;;;;;7.28;5.75;;;20.10;40.60;;;;;;4993109;28;20439;-75
2021/10/03 11:19:04;;;;;;;8.15;6.20;;;20.20;39.50;;;;;;4994029;28;20800;-75
2021/10/03 11:21:42;;;;;;;12.80;6.10;;;20.10;40.40;;;;;;4994628;28;20888;-76
2021/10/03 11:24:17;;;;;;;8.02;5.93;;;20.10;40.40;;;;;;4994063;28;20394;-77
2021/10/03 11:27:05;;;;;;;8.30;6.23;;;20.00;40.50;;;;;;4996094;28;20439;-76
2021/10/03 11:29:37;;;;;;;6.65;5.75;;;20.00;40.90;;;;;;4982722;28;20431;-77
2021/10/03 11:32:08;;;;;;;6.75;6.03;;;20.00;41.10;;;;;;4995346;28;20413;-76
2021/10/03 11:34:39;;;;;;;9.50;6.83;;;19.90;41.10;;;;;;4993364;28;20402;-76
2021/10/03 11:37:21;;;;;;;8.27;5.88;;;19.90;41.40;;;;;;4994074;28;20438;-76
2021/10/03 11:39:57;;;;;;;8.02;6.00;;;19.90;41.00;;;;;;4993546;28;20399;-76
2021/10/03 11:42:35;;;;;;;9.50;6.67;;;20.00;41.20;;;;;;4992125;28;20483;-77
2021/10/03 11:45:04;;;;;;;7.80;6.10;;;19.90;41.70;;;;;;4987161;28;20482;-76
2021/10/03 11:47:41;;;;;;;8.30;6.20;;;19.90;41.40;;;;;;4993840;28;20410;-76
2021/10/03 11:50:09;;;;;;;11.68;8.82;;;20.00;41.10;;;;;;4993065;28;20649;-77
2021/10/03 11:52:37;;;;;;;8.73;6.70;;;20.10;41.80;;;;;;4995543;28;20456;-76
2021/10/03 11:55:18;;;;;;;8.60;6.47;;;20.20;41.40;;;;;;4995780;28;21012;-78
2021/10/03 11:57:46;;;;;;;8.95;6.10;;;20.20;41.70;;;;;;5003610;28;20444;-77
2021/10/03 12:00:15;;;;;;;10.05;6.50;;;20.20;41.70;;;;;;4994912;28;20418;-77
2021/10/03 12:02:46;;;;;;;8.75;6.63;;;20.20;42.60;;;;;;4993440;28;20457;-76
2021/10/03 12:05:20;;;;;;;9.40;6.75;;;20.20;43.10;;;;;;4994056;28;20433;-77
2021/10/03 12:07:58;;;;;;;8.30;5.93;;;20.10;42.90;;;;;;4996394;28;20730;-77
2021/10/03 12:10:39;;;;;;;8.65;6.47;;;20.10;43.50;;;;;;4997730;28;20414;-76
2021/10/03 12:13:22;;;;;;;7.53;6.20;;;20.10;42.90;;;;;;4994726;28;20398;-77
2021/10/03 12:15:52;;;;;;;7.32;5.60;;;20.10;42.80;;;;;;4995293;28;20403;-77
2021/10/03 12:18:43;;;;;;;10.77;6.10;;;20.10;42.40;;;;;;4994550;28;20395;-76
2021/10/03 12:21:08;;;;;;;7.72;6.20;;;20.10;42.20;;;;;;4987768;28;20391;-77
2021/10/03 12:23:51;;;;;;;9.30;6.80;;;20.10;41.70;;;;;;4994407;28;20398;-76
2021/10/03 12:26:26;;;;;;;7.13;6.43;;;20.20;42.20;;;;;;4990816;28;20405;-77
2021/10/03 12:28:58;;;;;;;6.27;5.40;;;20.20;41.40;;;;;;4996126;28;20467;-77
2021/10/03 12:31:48;;;;;;;9.18;6.93;;;20.20;40.80;;;;;;4994505;28;20402;-76
2021/10/03 12:34:14;;;;;;;7.13;5.63;;;20.40;41.50;;;;;;4983913;28;20741;-75
2021/10/03 12:36:48;;;;;;;10.13;6.00;;;20.40;39.40;;;;;;4988558;28;20423;-74
2021/10/03 12:39:14;;;;;;;7.85;6.03;;;20.50;39.60;;;;;;4991493;28;20450;-76
2021/10/03 12:41:39;;;;;;;7.28;6.18;;;20.50;39.40;;;;;;4992034;28;20732;-75
2021/10/03 12:44:05;;;;;;;8.80;6.13;;;20.70;37.90;;;;;;4990567;28;20425;-75
2021/10/03 12:46:31;;;;;;;7.17;5.70;;;20.70;37.70;;;;;;4988172;28;20497;-75
2021/10/03 12:48:56;;;;;;;7.80;5.97;;;20.90;37.50;;;;;;4992017;28;20496;-76